sensor_id;sensor_type;location;lat;lon;timestamp;pressure;altitude;pressure_sealevel;temperature
77355;BMP280;66422;51.202;19.936;2023-05-10T00:00:08;99840.09;;;6.78
77355;BMP280;66422;51.202;19.936;2023-05-10T00:15:44;99822.73;;;6.71
77355;BMP280;66422;51.202;19.936;2023-05-10T00:31:04;99808.88;;;6.93
77355;BMP280;66422;51.202;19.936;2023-05-10T00:46:24;99804.58;;;7.05
77355;BMP280;66422;51.202;19.936;2023-05-10T01:01:45;99792.93;;;6.95
77355;BMP280;66422;51.202;19.936;2023-05-10T01:17:06;99785.66;;;6.66
77355;BMP280;66422;51.202;19.936;2023-05-10T01:48:12;99772.52;;;6.40
77355;BMP280;66422;51.202;19.936;2023-05-10T02:03:35;99768.23;;;5.95
77355;BMP280;66422;51.202;19.936;2023-05-10T02:18:57;99756.04;;;5.52
77355;BMP280;66422;51.202;19.936;2023-05-10T02:34:21;99745.00;;;5.53
77355;BMP280;66422;51.202;19.936;2023-05-10T02:49:42;99738.80;;;5.68
77355;BMP280;66422;51.202;19.936;2023-05-10T03:05:02;99736.05;;;5.76
77355;BMP280;66422;51.202;19.936;2023-05-10T03:20:30;99732.90;;;5.81
77355;BMP280;66422;51.202;19.936;2023-05-10T03:35:52;99732.73;;;5.76
77355;BMP280;66422;51.202;19.936;2023-05-10T03:51:12;99721.60;;;6.02
77355;BMP280;66422;51.202;19.936;2023-05-10T04:06:33;99723.49;;;6.37
77355;BMP280;66422;51.202;19.936;2023-05-10T04:21:53;99733.40;;;7.08
77355;BMP280;66422;51.202;19.936;2023-05-10T04:37:13;99729.43;;;7.74
77355;BMP280;66422;51.202;19.936;2023-05-10T04:52:32;99729.02;;;8.65
77355;BMP280;66422;51.202;19.936;2023-05-10T05:07:52;99733.23;;;9.58
77355;BMP280;66422;51.202;19.936;2023-05-10T05:23:11;99814.54;;;15.01
77355;BMP280;66422;51.202;19.936;2023-05-10T05:38:31;99820.79;;;17.72
77355;BMP280;66422;51.202;19.936;2023-05-10T05:53:51;99817.11;;;17.41
77355;BMP280;66422;51.202;19.936;2023-05-10T06:09:12;99801.88;;;18.31
77355;BMP280;66422;51.202;19.936;2023-05-10T06:24:31;99806.95;;;19.08
77355;BMP280;66422;51.202;19.936;2023-05-10T06:39:51;99805.21;;;18.58
77355;BMP280;66422;51.202;19.936;2023-05-10T06:55:11;99737.38;;;16.45
77355;BMP280;66422;51.202;19.936;2023-05-10T07:10:31;99738.48;;;16.33
77355;BMP280;66422;51.202;19.936;2023-05-10T07:25:51;99740.27;;;16.66
77355;BMP280;66422;51.202;19.936;2023-05-10T07:41:11;99736.70;;;16.92
77355;BMP280;66422;51.202;19.936;2023-05-10T07:56:32;99729.84;;;17.49
77355;BMP280;66422;51.202;19.936;2023-05-10T08:11:52;99718.19;;;18.10
77355;BMP280;66422;51.202;19.936;2023-05-10T08:27:12;99711.42;;;18.43
77355;BMP280;66422;51.202;19.936;2023-05-10T08:42:34;99708.36;;;18.50
77355;BMP280;66422;51.202;19.936;2023-05-10T08:57:56;99715.13;;;18.44
77355;BMP280;66422;51.202;19.936;2023-05-10T09:13:17;99708.15;;;18.54
77355;BMP280;66422;51.202;19.936;2023-05-10T09:44:09;99689.94;;;19.48
77355;BMP280;66422;51.202;19.936;2023-05-10T09:59:29;99704.81;;;19.41
77355;BMP280;66422;51.202;19.936;2023-05-10T10:14:49;99695.44;;;19.48
77355;BMP280;66422;51.202;19.936;2023-05-10T10:45:39;99673.99;;;19.66
77355;BMP280;66422;51.202;19.936;2023-05-10T11:01:13;99660.54;;;19.68
77355;BMP280;66422;51.202;19.936;2023-05-10T11:16:43;99652.93;;;19.96
77355;BMP280;66422;51.202;19.936;2023-05-10T11:32:04;99642.48;;;19.98
77355;BMP280;66422;51.202;19.936;2023-05-10T11:47:27;99649.95;;;20.14
77355;BMP280;66422;51.202;19.936;2023-05-10T12:02:48;99629.25;;;20.68
77355;BMP280;66422;51.202;19.936;2023-05-10T12:18:09;99641.02;;;20.12
77355;BMP280;66422;51.202;19.936;2023-05-10T12:33:43;99620.77;;;20.26
77355;BMP280;66422;51.202;19.936;2023-05-10T12:49:04;99620.10;;;20.40
77355;BMP280;66422;51.202;19.936;2023-05-10T13:04:23;99616.89;;;20.00
77355;BMP280;66422;51.202;19.936;2023-05-10T13:19:43;99611.52;;;20.01
77355;BMP280;66422;51.202;19.936;2023-05-10T13:35:03;99594.48;;;20.19
77355;BMP280;66422;51.202;19.936;2023-05-10T13:50:23;99583.48;;;19.70
77355;BMP280;66422;51.202;19.936;2023-05-10T14:05:42;99575.74;;;19.94
77355;BMP280;66422;51.202;19.936;2023-05-10T14:21:03;99560.17;;;19.87
77355;BMP280;66422;51.202;19.936;2023-05-10T14:36:23;99555.27;;;19.73
77355;BMP280;66422;51.202;19.936;2023-05-10T14:51:42;99555.70;;;19.64
77355;BMP280;66422;51.202;19.936;2023-05-10T15:07:02;99551.42;;;19.80
77355;BMP280;66422;51.202;19.936;2023-05-10T15:22:22;99558.30;;;19.75
77355;BMP280;66422;51.202;19.936;2023-05-10T15:37:41;99548.80;;;19.78
77355;BMP280;66422;51.202;19.936;2023-05-10T15:53:01;99544.05;;;19.55
77355;BMP280;66422;51.202;19.936;2023-05-10T16:08:22;99538.56;;;19.26
77355;BMP280;66422;51.202;19.936;2023-05-10T16:23:42;99536.78;;;19.06
77355;BMP280;66422;51.202;19.936;2023-05-10T16:39:05;99543.86;;;19.15
77355;BMP280;66422;51.202;19.936;2023-05-10T16:54:24;99550.71;;;18.89
77355;BMP280;66422;51.202;19.936;2023-05-10T17:09:45;99559.34;;;19.64
77355;BMP280;66422;51.202;19.936;2023-05-10T17:25:05;99570.16;;;19.41
77355;BMP280;66422;51.202;19.936;2023-05-10T17:40:25;99583.01;;;17.83
77355;BMP280;66422;51.202;19.936;2023-05-10T17:55:45;99587.70;;;16.77
77355;BMP280;66422;51.202;19.936;2023-05-10T18:11:05;99600.63;;;15.80
77355;BMP280;66422;51.202;19.936;2023-05-10T18:26:25;99615.25;;;14.95
77355;BMP280;66422;51.202;19.936;2023-05-10T18:41:46;99633.23;;;13.84
77355;BMP280;66422;51.202;19.936;2023-05-10T18:57:06;99644.90;;;13.53
77355;BMP280;66422;51.202;19.936;2023-05-10T19:12:26;99655.40;;;13.05
77355;BMP280;66422;51.202;19.936;2023-05-10T19:27:46;99669.55;;;12.40
77355;BMP280;66422;51.202;19.936;2023-05-10T19:43:06;99669.99;;;12.02
77355;BMP280;66422;51.202;19.936;2023-05-10T19:58:26;99676.22;;;11.64
77355;BMP280;66422;51.202;19.936;2023-05-10T20:13:46;99680.84;;;11.15
77355;BMP280;66422;51.202;19.936;2023-05-10T20:29:06;99683.92;;;10.83
77355;BMP280;66422;51.202;19.936;2023-05-10T20:44:26;99683.36;;;10.50
77355;BMP280;66422;51.202;19.936;2023-05-10T20:59:45;99681.79;;;10.20
77355;BMP280;66422;51.202;19.936;2023-05-10T21:15:06;99683.02;;;10.00
77355;BMP280;66422;51.202;19.936;2023-05-10T21:30:25;99688.43;;;9.70
77355;BMP280;66422;51.202;19.936;2023-05-10T21:45:46;99689.66;;;9.55
77355;BMP280;66422;51.202;19.936;2023-05-10T22:01:05;99693.91;;;9.41
77355;BMP280;66422;51.202;19.936;2023-05-10T22:16:25;99692.73;;;9.29
77355;BMP280;66422;51.202;19.936;2023-05-10T22:31:44;99704.16;;;9.18
77355;BMP280;66422;51.202;19.936;2023-05-10T22:47:04;99710.48;;;9.03
77355;BMP280;66422;51.202;19.936;2023-05-10T23:02:26;99711.36;;;8.77
77355;BMP280;66422;51.202;19.936;2023-05-10T23:17:46;99719.46;;;8.47
77355;BMP280;66422;51.202;19.936;2023-05-10T23:33:06;99719.08;;;8.33
77355;BMP280;66422;51.202;19.936;2023-05-10T23:48:26;99713.29;;;8.10
